There are multiple Weather-warnings   Click here for more information


Meteo18 Weather Cam more information Meteo18 Weather Cam


warning for Thunderstorms more information blitzortung!


Rain radar more information rain snow radar


Visit our other weather sites:

Template documentation
and downloads

And another site



Weather Underground History page Text

Daily Summary for May 5, 2017 Units:  Both    English   Metric
« Previous Day
Next Day »
Daily Weekly Monthly Yearly Custom
  High: Low: Average:
Temperature: 69.1 °F /  20.6 °C 40.8 °F /  4.9 °C 55.4 °F /  13 °C
Dew Point: 52.5 °F /  11.4 °C 39.6 °F /  4.2 °C 45.5 °F /  7.5 °C
Humidity: 96 % 46 % 72 %
Wind Speed: 12 mph /  19.3 km/h - 3 mph /  4.9 km/h
Wind Gust: 17 mph /  27.4 km/h - -
Wind:- - East
Pressure: 30.1 in /  1018.8 hPa 29.8 in /  1009.0 hPa -
Precipitation: 0 in /  0.0 mm    
Historical Graphs
 
 
Tabular Data for May 5, 2017
Time Temperature Dew Point Pressure Wind Wind Speed Wind Gust Humidity Rainfall Rate (Hourly)
00:02 47.5 °F /  8.6 °C 44.8 °F /  7.1 °C 30.1 in /  1018.8 hPa Calm   1 mph /  1.6 km/h 90 % 0 in /  0.0 mm
00:07 46.9 °F /  8.3 °C 43.9 °F /  6.6 °C 30.1 in /  1018.8 hPa Calm   1 mph /  1.6 km/h 89 % 0 in /  0.0 mm
00:12 46.2 °F /  7.9 °C 43.2 °F /  6.2 °C 30.1 in /  1018.8 hPa Calm   1 mph /  1.6 km/h 89 % 0 in /  0.0 mm
00:17 46 °F /  7.8 °C 43.5 °F /  6.4 °C 30.1 in /  1018.8 hPa Calm     91 % 0 in /  0.0 mm
00:22 46.2 °F /  7.9 °C 44.1 °F /  6.7 °C 30.1 in /  1018.8 hPa Calm   1 mph /  1.6 km/h 92 % 0 in /  0.0 mm
00:32 45.3 °F /  7.4 °C 43.2 °F /  6.2 °C 30.1 in /  1018.8 hPa West 1 mph /  1.6 km/h 1 mph /  1.6 km/h 92 % 0 in /  0.0 mm
00:37 45 °F /  7.2 °C 42.8 °F /  6.0 °C 30.1 in /  1018.8 hPa Calm   1 mph /  1.6 km/h 92 % 0 in /  0.0 mm
00:42 45.1 °F /  7.3 °C 43.5 °F /  6.4 °C 30.1 in /  1018.8 hPa Calm   1 mph /  1.6 km/h 94 % 0 in /  0.0 mm
00:47 45.5 °F /  7.5 °C 43.5 °F /  6.4 °C 30.1 in /  1018.8 hPa WNW 2 mph /  3.2 km/h 2 mph /  3.2 km/h 93 % 0 in /  0.0 mm
00:52 45.1 °F /  7.3 °C 43.2 °F /  6.2 °C 30.1 in /  1018.8 hPa WNW 1 mph /  1.6 km/h 2 mph /  3.2 km/h 93 % 0 in /  0.0 mm
00:57 45.7 °F /  7.6 °C 44.1 °F /  6.7 °C 30.1 in /  1018.8 hPa Calm   2 mph /  3.2 km/h 94 % 0 in /  0.0 mm
01:02 45.5 °F /  7.5 °C 43.5 °F /  6.4 °C 30.1 in /  1018.8 hPa NW 1 mph /  1.6 km/h 2 mph /  3.2 km/h 93 % 0 in /  0.0 mm
01:07 45.1 °F /  7.3 °C 43.2 °F /  6.2 °C 30.1 in /  1018.8 hPa NNW 1 mph /  1.6 km/h 1 mph /  1.6 km/h 93 % 0 in /  0.0 mm
01:12 44.8 °F /  7.1 °C 42.6 °F /  5.9 °C 30.1 in /  1018.8 hPa NNW 1 mph /  1.6 km/h 2 mph /  3.2 km/h 92 % 0 in /  0.0 mm
01:17 44.4 °F /  6.9 °C 42.4 °F /  5.8 °C 30.1 in /  1018.8 hPa Calm   2 mph /  3.2 km/h 93 % 0 in /  0.0 mm
01:22 44.4 °F /  6.9 °C 42.4 °F /  5.8 °C 30.1 in /  1018.8 hPa Calm   2 mph /  3.2 km/h 93 % 0 in /  0.0 mm
01:27 43.7 °F /  6.5 °C 41.5 °F /  5.3 °C 30.1 in /  1018.8 hPa North 1 mph /  1.6 km/h 2 mph /  3.2 km/h 92 % 0 in /  0.0 mm
01:32 43.2 °F /  6.2 °C 41 °F /  5.0 °C 30.1 in /  1018.8 hPa Calm   2 mph /  3.2 km/h 92 % 0 in /  0.0 mm
01:37 43.3 °F /  6.3 °C 41.5 °F /  5.3 °C 30.1 in /  1018.5 hPa Calm   2 mph /  3.2 km/h 93 % 0 in /  0.0 mm
01:42 43.3 °F /  6.3 °C 41.5 °F /  5.3 °C 30.1 in /  1018.5 hPa NW 1 mph /  1.6 km/h 2 mph /  3.2 km/h 93 % 0 in /  0.0 mm
01:47 43.3 °F /  6.3 °C 41.7 °F /  5.4 °C 30.1 in /  1018.5 hPa WNW 1 mph /  1.6 km/h 2 mph /  3.2 km/h 94 % 0 in /  0.0 mm
01:52 43.2 °F /  6.2 °C 41.5 °F /  5.3 °C 30.1 in /  1018.5 hPa WNW 1 mph /  1.6 km/h 2 mph /  3.2 km/h 94 % 0 in /  0.0 mm
01:57 43.2 °F /  6.2 °C 41.5 °F /  5.3 °C 30.1 in /  1018.5 hPa Calm   1 mph /  1.6 km/h 94 % 0 in /  0.0 mm
02:02 43.5 °F /  6.4 °C 42.3 °F /  5.7 °C 30.1 in /  1018.5 hPa Calm   1 mph /  1.6 km/h 95 % 0 in /  0.0 mm
02:12 44.2 °F /  6.8 °C 43 °F /  6.1 °C 30.1 in /  1018.2 hPa Calm     95 % 0 in /  0.0 mm
02:17 44.1 °F /  6.7 °C 42.4 °F /  5.8 °C 30.1 in /  1018.2 hPa North 1 mph /  1.6 km/h 2 mph /  3.2 km/h 94 % 0 in /  0.0 mm
02:22 44.1 °F /  6.7 °C 42.4 °F /  5.8 °C 30.1 in /  1018.2 hPa North 1 mph /  1.6 km/h 2 mph /  3.2 km/h 94 % 0 in /  0.0 mm
02:27 44.1 °F /  6.7 °C 42.4 °F /  5.8 °C 30.1 in /  1018.2 hPa NNE 1 mph /  1.6 km/h 2 mph /  3.2 km/h 94 % 0 in /  0.0 mm
02:32 43.9 °F /  6.6 °C 42.3 °F /  5.7 °C 30.1 in /  1018.2 hPa Calm   2 mph /  3.2 km/h 94 % 0 in /  0.0 mm
02:37 43.7 °F /  6.5 °C 42.1 °F /  5.6 °C 30.1 in /  1018.2 hPa Calm   2 mph /  3.2 km/h 94 % 0 in /  0.0 mm
02:42 43.5 °F /  6.4 °C 41.9 °F /  5.5 °C 30.1 in /  1018.2 hPa Calm   2 mph /  3.2 km/h 94 % 0 in /  0.0 mm
02:47 43.2 °F /  6.2 °C 41.4 °F /  5.2 °C 30.1 in /  1018.2 hPa Calm   1 mph /  1.6 km/h 93 % 0 in /  0.0 mm
02:52 43.3 °F /  6.3 °C 42.1 °F /  5.6 °C 30.1 in /  1017.8 hPa Calm   1 mph /  1.6 km/h 95 % 0 in /  0.0 mm
02:57 43.3 °F /  6.3 °C 42.1 °F /  5.6 °C 30.1 in /  1018.2 hPa Calm   1 mph /  1.6 km/h 95 % 0 in /  0.0 mm
03:02 43.3 °F /  6.3 °C 41.7 °F /  5.4 °C 30.1 in /  1018.2 hPa Calm   1 mph /  1.6 km/h 94 % 0 in /  0.0 mm
03:07 43.3 °F /  6.3 °C 41.7 °F /  5.4 °C 30.1 in /  1018.2 hPa Calm   1 mph /  1.6 km/h 94 % 0 in /  0.0 mm
03:12 43.5 °F /  6.4 °C 42.3 °F /  5.7 °C 30.1 in /  1018.2 hPa NNW 1 mph /  1.6 km/h   95 % 0 in /  0.0 mm
03:22 43.5 °F /  6.4 °C 41.9 °F /  5.5 °C 30.1 in /  1018.2 hPa Calm   1 mph /  1.6 km/h 94 % 0 in /  0.0 mm
03:27 43.3 °F /  6.3 °C 42.1 °F /  5.6 °C 30.1 in /  1018.2 hPa Calm   1 mph /  1.6 km/h 95 % 0 in /  0.0 mm
03:32 43.2 °F /  6.2 °C 41.5 °F /  5.3 °C 30.1 in /  1017.8 hPa Calm     94 % 0 in /  0.0 mm
03:37 42.6 °F /  5.9 °C 41 °F /  5.0 °C 30.1 in /  1017.8 hPa Calm     94 % 0 in /  0.0 mm
03:42 42.4 °F /  5.8 °C 40.8 °F /  4.9 °C 30.1 in /  1017.8 hPa Calm     94 % 0 in /  0.0 mm
03:47 42.6 °F /  5.9 °C 41.4 °F /  5.2 °C 30.1 in /  1017.8 hPa Calm     95 % 0 in /  0.0 mm
03:52 42.6 °F /  5.9 °C 41.4 °F /  5.2 °C 30.1 in /  1017.8 hPa Calm     95 % 0 in /  0.0 mm
03:57 42.3 °F /  5.7 °C 40.6 °F /  4.8 °C 30.1 in /  1018.2 hPa Calm     94 % 0 in /  0.0 mm
04:02 42.4 °F /  5.8 °C 41.2 °F /  5.1 °C 30.1 in /  1017.8 hPa NNW 1 mph /  1.6 km/h   95 % 0 in /  0.0 mm
04:07 42.3 °F /  5.7 °C 41 °F /  5.0 °C 30.1 in /  1017.8 hPa North 1 mph /  1.6 km/h 2 mph /  3.2 km/h 95 % 0 in /  0.0 mm
04:12 42.6 °F /  5.9 °C 41.5 °F /  5.3 °C 30.1 in /  1017.8 hPa North 1 mph /  1.6 km/h 2 mph /  3.2 km/h 96 % 0 in /  0.0 mm
04:17 43.2 °F /  6.2 °C 42.1 °F /  5.6 °C 30.1 in /  1017.8 hPa Calm   2 mph /  3.2 km/h 96 % 0 in /  0.0 mm
04:22 43 °F /  6.1 °C 41.7 °F /  5.4 °C 30.1 in /  1017.8 hPa Calm   1 mph /  1.6 km/h 95 % 0 in /  0.0 mm
04:27 42.4 °F /  5.8 °C 40.8 °F /  4.9 °C 30.1 in /  1017.8 hPa Calm   1 mph /  1.6 km/h 94 % 0 in /  0.0 mm
04:32 42.3 °F /  5.7 °C 41 °F /  5.0 °C 30.1 in /  1017.8 hPa Calm     95 % 0 in /  0.0 mm
04:37 42.3 °F /  5.7 °C 41 °F /  5.0 °C 30.1 in /  1017.8 hPa Calm     95 % 0 in /  0.0 mm
04:42 42.4 °F /  5.8 °C 41.2 °F /  5.1 °C 30.1 in /  1017.8 hPa Calm     95 % 0 in /  0.0 mm
04:47 42.6 °F /  5.9 °C 41.4 °F /  5.2 °C 30.1 in /  1017.8 hPa Calm     95 % 0 in /  0.0 mm
04:52 42.8 °F /  6.0 °C 41.5 °F /  5.3 °C 30.1 in /  1017.8 hPa Calm     95 % 0 in /  0.0 mm
04:57 42.4 °F /  5.8 °C 40.8 °F /  4.9 °C 30.1 in /  1017.8 hPa Calm     94 % 0 in /  0.0 mm
05:02 41.7 °F /  5.4 °C 40.1 °F /  4.5 °C 30.1 in /  1018.2 hPa Calm     94 % 0 in /  0.0 mm
05:12 41.7 °F /  5.4 °C 40.5 °F /  4.7 °C 30.1 in /  1017.8 hPa Calm     95 % 0 in /  0.0 mm
05:17 41.5 °F /  5.3 °C 39.9 °F /  4.4 °C 30.1 in /  1017.8 hPa Calm     94 % 0 in /  0.0 mm
05:22 41.7 °F /  5.4 °C 40.5 °F /  4.7 °C 30.1 in /  1017.8 hPa Calm     95 % 0 in /  0.0 mm
05:32 41.4 °F /  5.2 °C 40.1 °F /  4.5 °C 30.1 in /  1017.8 hPa Calm     95 % 0 in /  0.0 mm
05:37 41.5 °F /  5.3 °C 40.5 °F /  4.7 °C 30.1 in /  1017.8 hPa Calm   1 mph /  1.6 km/h 96 % 0 in /  0.0 mm
05:42 41.5 °F /  5.3 °C 40.3 °F /  4.6 °C 30.1 in /  1017.8 hPa North 1 mph /  1.6 km/h 1 mph /  1.6 km/h 95 % 0 in /  0.0 mm
05:47 41.4 °F /  5.2 °C 40.1 °F /  4.5 °C 30.1 in /  1017.8 hPa NNW 1 mph /  1.6 km/h 2 mph /  3.2 km/h 95 % 0 in /  0.0 mm
05:52 41.2 °F /  5.1 °C 39.9 °F /  4.4 °C 30.1 in /  1017.8 hPa Calm   2 mph /  3.2 km/h 95 % 0 in /  0.0 mm
05:57 40.8 °F /  4.9 °C 39.6 °F /  4.2 °C 30.1 in /  1017.8 hPa Calm   2 mph /  3.2 km/h 95 % 0 in /  0.0 mm
06:02 41.2 °F /  5.1 °C 40.1 °F /  4.5 °C 30.1 in /  1017.8 hPa Calm   1 mph /  1.6 km/h 96 % 0 in /  0.0 mm
06:12 41.2 °F /  5.1 °C 40.1 °F /  4.5 °C 30.1 in /  1017.8 hPa Calm   1 mph /  1.6 km/h 96 % 0 in /  0.0 mm
06:17 41.2 °F /  5.1 °C 40.1 °F /  4.5 °C 30.1 in /  1017.5 hPa Calm   1 mph /  1.6 km/h 96 % 0 in /  0.0 mm
06:22 41.4 °F /  5.2 °C 40.3 °F /  4.6 °C 30.1 in /  1017.8 hPa Calm   1 mph /  1.6 km/h 96 % 0 in /  0.0 mm
06:32 41.2 °F /  5.1 °C 40.1 °F /  4.5 °C 30.1 in /  1017.8 hPa North 1 mph /  1.6 km/h 1 mph /  1.6 km/h 96 % 0 in /  0.0 mm
06:37 41.2 °F /  5.1 °C 40.1 °F /  4.5 °C 30.1 in /  1017.8 hPa Calm   1 mph /  1.6 km/h 96 % 0 in /  0.0 mm
06:42 41.4 °F /  5.2 °C 40.3 °F /  4.6 °C 30.1 in /  1017.8 hPa Calm   1 mph /  1.6 km/h 96 % 0 in /  0.0 mm
06:47 41.5 °F /  5.3 °C 40.5 °F /  4.7 °C 30.1 in /  1017.8 hPa Calm   1 mph /  1.6 km/h 96 % 0 in /  0.0 mm
06:52 41.7 °F /  5.4 °C 40.5 °F /  4.7 °C 30.1 in /  1017.8 hPa NNW 1 mph /  1.6 km/h 1 mph /  1.6 km/h 95 % 0 in /  0.0 mm
07:02 42.3 °F /  5.7 °C 41 °F /  5.0 °C 30.1 in /  1017.8 hPa Calm   2 mph /  3.2 km/h 95 % 0 in /  0.0 mm
07:12 42.6 °F /  5.9 °C 41.4 °F /  5.2 °C 30.1 in /  1017.5 hPa Calm   1 mph /  1.6 km/h 95 % 0 in /  0.0 mm
07:17 42.8 °F /  6.0 °C 41.5 °F /  5.3 °C 30.1 in /  1017.8 hPa North 1 mph /  1.6 km/h   95 % 0 in /  0.0 mm
07:22 42.8 °F /  6.0 °C 41.2 °F /  5.1 °C 30.1 in /  1017.5 hPa Calm   1 mph /  1.6 km/h 94 % 0 in /  0.0 mm
07:32 42.8 °F /  6.0 °C 41.5 °F /  5.3 °C 30.1 in /  1017.8 hPa NE 2 mph /  3.2 km/h 3 mph /  4.8 km/h 95 % 0 in /  0.0 mm
07:37 43.3 °F /  6.3 °C 42.1 °F /  5.6 °C 30.1 in /  1017.8 hPa NE 2 mph /  3.2 km/h 4 mph /  6.4 km/h 95 % 0 in /  0.0 mm
07:42 43.5 °F /  6.4 °C 41.9 °F /  5.5 °C 30.1 in /  1017.8 hPa NNE 2 mph /  3.2 km/h 4 mph /  6.4 km/h 94 % 0 in /  0.0 mm
07:47 44.1 °F /  6.7 °C 42.4 °F /  5.8 °C 30.1 in /  1017.8 hPa NNW 2 mph /  3.2 km/h 4 mph /  6.4 km/h 94 % 0 in /  0.0 mm
07:52 44.2 °F /  6.8 °C 42.6 °F /  5.9 °C 30.1 in /  1017.8 hPa NE 3 mph /  4.8 km/h 4 mph /  6.4 km/h 94 % 0 in /  0.0 mm
07:57 44.8 °F /  7.1 °C 43.2 °F /  6.2 °C 30.1 in /  1017.5 hPa NE 3 mph /  4.8 km/h 4 mph /  6.4 km/h 94 % 0 in /  0.0 mm
08:02 45.1 °F /  7.3 °C 43.2 °F /  6.2 °C 30.1 in /  1017.5 hPa NE 4 mph /  6.4 km/h 5 mph /  8.0 km/h 93 % 0 in /  0.0 mm
08:12 46 °F /  7.8 °C 44.1 °F /  6.7 °C 30.1 in /  1017.5 hPa NE 4 mph /  6.4 km/h 7 mph /  11.3 km/h 93 % 0 in /  0.0 mm
08:17 46.6 °F /  8.1 °C 44.4 °F /  6.9 °C 30.1 in /  1017.5 hPa NNE 4 mph /  6.4 km/h 7 mph /  11.3 km/h 92 % 0 in /  0.0 mm
08:22 46.9 °F /  8.3 °C 44.4 °F /  6.9 °C 30.1 in /  1017.5 hPa North 2 mph /  3.2 km/h 6 mph /  9.7 km/h 91 % 0 in /  0.0 mm
08:32 47.8 °F /  8.8 °C 45 °F /  7.2 °C 30.1 in /  1017.5 hPa Calm   5 mph /  8.0 km/h 90 % 0 in /  0.0 mm
08:37 48.4 °F /  9.1 °C 45.5 °F /  7.5 °C 30.1 in /  1017.5 hPa NNE 2 mph /  3.2 km/h 5 mph /  8.0 km/h 90 % 0 in /  0.0 mm
08:42 49.3 °F /  9.6 °C 46.4 °F /  8.0 °C 30.1 in /  1017.5 hPa Calm   4 mph /  6.4 km/h 90 % 0 in /  0.0 mm
08:47 50 °F /  10.0 °C 47.1 °F /  8.4 °C 30.1 in /  1017.8 hPa Calm   4 mph /  6.4 km/h 90 % 0 in /  0.0 mm
08:52 50.4 °F /  10.2 °C 46.6 °F /  8.1 °C 30.1 in /  1017.8 hPa Calm   4 mph /  6.4 km/h 87 % 0 in /  0.0 mm
08:57 51.1 °F /  10.6 °C 47.3 °F /  8.5 °C 30.1 in /  1017.8 hPa Calm   4 mph /  6.4 km/h 87 % 0 in /  0.0 mm
09:02 51.3 °F /  10.7 °C 46.9 °F /  8.3 °C 30.1 in /  1017.5 hPa East 3 mph /  4.8 km/h 3 mph /  4.8 km/h 85 % 0 in /  0.0 mm
09:12 51.1 °F /  10.6 °C 46.4 °F /  8.0 °C 30.1 in /  1017.5 hPa East 1 mph /  1.6 km/h 5 mph /  8.0 km/h 84 % 0 in /  0.0 mm
09:17 51.3 °F /  10.7 °C 46.9 °F /  8.3 °C 30.1 in /  1017.5 hPa NE 2 mph /  3.2 km/h 5 mph /  8.0 km/h 85 % 0 in /  0.0 mm
09:22 51.8 °F /  11.0 °C 47.5 °F /  8.6 °C 30.1 in /  1017.5 hPa Calm   5 mph /  8.0 km/h 85 % 0 in /  0.0 mm
09:32 52.3 °F /  11.3 °C 47.7 °F /  8.7 °C 30.1 in /  1017.5 hPa ENE 2 mph /  3.2 km/h 6 mph /  9.7 km/h 84 % 0 in /  0.0 mm
09:37 52.9 °F /  11.6 °C 48.2 °F /  9.0 °C 30.1 in /  1017.5 hPa NE 3 mph /  4.8 km/h 6 mph /  9.7 km/h 84 % 0 in /  0.0 mm
09:42 53.1 °F /  11.7 °C 48 °F /  8.9 °C 30.1 in /  1017.5 hPa NE 2 mph /  3.2 km/h 5 mph /  8.0 km/h 83 % 0 in /  0.0 mm
09:47 53.2 °F /  11.8 °C 48.2 °F /  9.0 °C 30.1 in /  1017.5 hPa ENE 5 mph /  8.0 km/h 7 mph /  11.3 km/h 83 % 0 in /  0.0 mm
09:52 53.2 °F /  11.8 °C 48.6 °F /  9.2 °C 30.1 in /  1017.5 hPa NE 5 mph /  8.0 km/h 8 mph /  12.9 km/h 84 % 0 in /  0.0 mm
09:57 53.8 °F /  12.1 °C 48.7 °F /  9.3 °C 30 in /  1017.2 hPa NE 2 mph /  3.2 km/h 8 mph /  12.9 km/h 83 % 0 in /  0.0 mm
10:02 54.1 °F /  12.3 °C 48.7 °F /  9.3 °C 30 in /  1017.2 hPa NE 3 mph /  4.8 km/h 8 mph /  12.9 km/h 82 % 0 in /  0.0 mm
10:07 54.9 °F /  12.7 °C 49.5 °F /  9.7 °C 30 in /  1017.2 hPa East 3 mph /  4.8 km/h 7 mph /  11.3 km/h 82 % 0 in /  0.0 mm
10:12 55 °F /  12.8 °C 49.3 °F /  9.6 °C 30 in /  1017.2 hPa East 5 mph /  8.0 km/h 8 mph /  12.9 km/h 81 % 0 in /  0.0 mm
10:17 55.2 °F /  12.9 °C 48.2 °F /  9.0 °C 30 in /  1017.2 hPa ENE 5 mph /  8.0 km/h 9 mph /  14.5 km/h 77 % 0 in /  0.0 mm
10:22 55.8 °F /  13.2 °C 49.3 °F /  9.6 °C 30 in /  1017.2 hPa East 4 mph /  6.4 km/h 9 mph /  14.5 km/h 79 % 0 in /  0.0 mm
10:27 55.9 °F /  13.3 °C 48.9 °F /  9.4 °C 30 in /  1017.2 hPa ENE 6 mph /  9.7 km/h 9 mph /  14.5 km/h 77 % 0 in /  0.0 mm
10:32 55.8 °F /  13.2 °C 48.7 °F /  9.3 °C 30 in /  1017.2 hPa East 3 mph /  4.8 km/h 9 mph /  14.5 km/h 77 % 0 in /  0.0 mm
10:37 56.1 °F /  13.4 °C 49.3 °F /  9.6 °C 30 in /  1017.2 hPa East 5 mph /  8.0 km/h 9 mph /  14.5 km/h 78 % 0 in /  0.0 mm
10:42 56.3 °F /  13.5 °C 48.6 °F /  9.2 °C 30 in /  1016.8 hPa ENE 2 mph /  3.2 km/h 11 mph /  17.7 km/h 75 % 0 in /  0.0 mm
10:47 56.8 °F /  13.8 °C 49.3 °F /  9.6 °C 30 in /  1016.8 hPa NE 6 mph /  9.7 km/h 11 mph /  17.7 km/h 76 % 0 in /  0.0 mm
10:52 57.4 °F /  14.1 °C 48.7 °F /  9.3 °C 30 in /  1016.8 hPa East 5 mph /  8.0 km/h 8 mph /  12.9 km/h 73 % 0 in /  0.0 mm
10:57 57.6 °F /  14.2 °C 48.9 °F /  9.4 °C 30 in /  1016.8 hPa NE 6 mph /  9.7 km/h 10 mph /  16.1 km/h 73 % 0 in /  0.0 mm
11:02 57.7 °F /  14.3 °C 48 °F /  8.9 °C 30 in /  1016.8 hPa ENE 7 mph /  11.3 km/h 11 mph /  17.7 km/h 70 % 0 in /  0.0 mm
11:12 58.5 °F /  14.7 °C 48 °F /  8.9 °C 30 in /  1016.5 hPa East 5 mph /  8.0 km/h 11 mph /  17.7 km/h 68 % 0 in /  0.0 mm
11:17 59 °F /  15.0 °C 48.4 °F /  9.1 °C 30 in /  1016.5 hPa NE 4 mph /  6.4 km/h 11 mph /  17.7 km/h 68 % 0 in /  0.0 mm
11:22 59.2 °F /  15.1 °C 48.2 °F /  9.0 °C 30 in /  1016.5 hPa ENE 4 mph /  6.4 km/h 11 mph /  17.7 km/h 67 % 0 in /  0.0 mm
11:27 59.4 °F /  15.2 °C 48.7 °F /  9.3 °C 30 in /  1016.5 hPa ENE 5 mph /  8.0 km/h 11 mph /  17.7 km/h 68 % 0 in /  0.0 mm
11:32 59.5 °F /  15.3 °C 48.2 °F /  9.0 °C 30 in /  1016.5 hPa ENE 5 mph /  8.0 km/h 11 mph /  17.7 km/h 66 % 0 in /  0.0 mm
11:37 59.9 °F /  15.5 °C 48.6 °F /  9.2 °C 30 in /  1016.5 hPa NE 7 mph /  11.3 km/h 11 mph /  17.7 km/h 66 % 0 in /  0.0 mm
11:42 60.3 °F /  15.7 °C 48 °F /  8.9 °C 30 in /  1016.5 hPa NE 5 mph /  8.0 km/h 11 mph /  17.7 km/h 64 % 0 in /  0.0 mm
11:47 60.3 °F /  15.7 °C 47.1 °F /  8.4 °C 30 in /  1016.5 hPa ENE 6 mph /  9.7 km/h 12 mph /  19.3 km/h 62 % 0 in /  0.0 mm
11:52 60.4 °F /  15.8 °C 48.2 °F /  9.0 °C 30 in /  1016.1 hPa ENE 9 mph /  14.5 km/h 14 mph /  22.5 km/h 64 % 0 in /  0.0 mm
11:57 60.8 °F /  16.0 °C 48.6 °F /  9.2 °C 30 in /  1016.1 hPa NE 7 mph /  11.3 km/h 14 mph /  22.5 km/h 64 % 0 in /  0.0 mm
12:02 60.6 °F /  15.9 °C 47.1 °F /  8.4 °C 30 in /  1016.1 hPa ENE 5 mph /  8.0 km/h 13 mph /  20.9 km/h 61 % 0 in /  0.0 mm
12:07 61.2 °F /  16.2 °C 47.7 °F /  8.7 °C 30 in /  1016.1 hPa East 6 mph /  9.7 km/h 13 mph /  20.9 km/h 61 % 0 in /  0.0 mm
12:12 61.3 °F /  16.3 °C 47.8 °F /  8.8 °C 30 in /  1016.1 hPa ENE 9 mph /  14.5 km/h 12 mph /  19.3 km/h 61 % 0 in /  0.0 mm
12:17 61.2 °F /  16.2 °C 47.7 °F /  8.7 °C 30 in /  1016.1 hPa East 8 mph /  12.9 km/h 14 mph /  22.5 km/h 61 % 0 in /  0.0 mm
12:22 61.3 °F /  16.3 °C 46.4 °F /  8.0 °C 30 in /  1016.1 hPa East 7 mph /  11.3 km/h 15 mph /  24.1 km/h 58 % 0 in /  0.0 mm
12:27 61.7 °F /  16.5 °C 45.3 °F /  7.4 °C 30 in /  1015.8 hPa ENE 8 mph /  12.9 km/h 15 mph /  24.1 km/h 55 % 0 in /  0.0 mm
12:32 61.9 °F /  16.6 °C 45.5 °F /  7.5 °C 30 in /  1015.8 hPa ENE 12 mph /  19.3 km/h 16 mph /  25.7 km/h 55 % 0 in /  0.0 mm
12:42 62.4 °F /  16.9 °C 46.9 °F /  8.3 °C 30 in /  1015.8 hPa East 6 mph /  9.7 km/h 16 mph /  25.7 km/h 57 % 0 in /  0.0 mm
12:47 62.2 °F /  16.8 °C 45 °F /  7.2 °C 30 in /  1015.8 hPa ENE 10 mph /  16.1 km/h 15 mph /  24.1 km/h 53 % 0 in /  0.0 mm
12:52 62.4 °F /  16.9 °C 46 °F /  7.8 °C 30 in /  1015.8 hPa ENE 3 mph /  4.8 km/h 15 mph /  24.1 km/h 55 % 0 in /  0.0 mm
12:57 63 °F /  17.2 °C 45.1 °F /  7.3 °C 30 in /  1015.8 hPa ESE 4 mph /  6.4 km/h 14 mph /  22.5 km/h 52 % 0 in /  0.0 mm
13:02 63 °F /  17.2 °C 46 °F /  7.8 °C 30 in /  1015.8 hPa NNE 7 mph /  11.3 km/h 16 mph /  25.7 km/h 54 % 0 in /  0.0 mm
13:07 63.3 °F /  17.4 °C 46.9 °F /  8.3 °C 30 in /  1015.8 hPa ENE 6 mph /  9.7 km/h 16 mph /  25.7 km/h 55 % 0 in /  0.0 mm
13:12 63.1 °F /  17.3 °C 45.7 °F /  7.6 °C 30 in /  1015.8 hPa ENE 3 mph /  4.8 km/h 16 mph /  25.7 km/h 53 % 0 in /  0.0 mm
13:17 63.5 °F /  17.5 °C 45.5 °F /  7.5 °C 30 in /  1015.8 hPa East 8 mph /  12.9 km/h 13 mph /  20.9 km/h 52 % 0 in /  0.0 mm
13:22 63.7 °F /  17.6 °C 46.8 °F /  8.2 °C 30 in /  1015.8 hPa ESE 2 mph /  3.2 km/h 15 mph /  24.1 km/h 54 % 0 in /  0.0 mm
13:32 63.7 °F /  17.6 °C 46.2 °F /  7.9 °C 30 in /  1015.8 hPa East 6 mph /  9.7 km/h 17 mph /  27.4 km/h 53 % 0 in /  0.0 mm
13:37 64 °F /  17.8 °C 48 °F /  8.9 °C 30 in /  1015.5 hPa NE 9 mph /  14.5 km/h 17 mph /  27.4 km/h 56 % 0 in /  0.0 mm
13:42 64.2 °F /  17.9 °C 48.2 °F /  9.0 °C 30 in /  1015.5 hPa ENE 10 mph /  16.1 km/h 14 mph /  22.5 km/h 56 % 0 in /  0.0 mm
13:52 64.6 °F /  18.1 °C 48 °F /  8.9 °C 30 in /  1015.5 hPa NE 6 mph /  9.7 km/h 14 mph /  22.5 km/h 55 % 0 in /  0.0 mm
13:57 64.6 °F /  18.1 °C 47.1 °F /  8.4 °C 30 in /  1015.5 hPa ENE 5 mph /  8.0 km/h 14 mph /  22.5 km/h 53 % 0 in /  0.0 mm
14:02 64.6 °F /  18.1 °C 48 °F /  8.9 °C 30 in /  1015.5 hPa East 8 mph /  12.9 km/h 15 mph /  24.1 km/h 55 % 0 in /  0.0 mm
14:07 65.5 °F /  18.6 °C 50.4 °F /  10.2 °C 30 in /  1015.5 hPa ENE 2 mph /  3.2 km/h 15 mph /  24.1 km/h 58 % 0 in /  0.0 mm
14:12 65.1 °F /  18.4 °C 47.5 °F /  8.6 °C 30 in /  1015.1 hPa East 2 mph /  3.2 km/h 15 mph /  24.1 km/h 53 % 0 in /  0.0 mm
14:17 65.7 °F /  18.7 °C 49.5 °F /  9.7 °C 30 in /  1015.1 hPa SSW 3 mph /  4.8 km/h 10 mph /  16.1 km/h 56 % 0 in /  0.0 mm
14:22 66.4 °F /  19.1 °C 49.6 °F /  9.8 °C 30 in /  1015.1 hPa East 6 mph /  9.7 km/h 10 mph /  16.1 km/h 55 % 0 in /  0.0 mm
14:27 66.7 °F /  19.3 °C 51.4 °F /  10.8 °C 30 in /  1014.8 hPa ESE 3 mph /  4.8 km/h 10 mph /  16.1 km/h 58 % 0 in /  0.0 mm
14:32 65.8 °F /  18.8 °C 49.6 °F /  9.8 °C 30 in /  1014.8 hPa East 8 mph /  12.9 km/h 10 mph /  16.1 km/h 56 % 0 in /  0.0 mm
14:37 65.8 °F /  18.8 °C 49.6 °F /  9.8 °C 30 in /  1014.8 hPa ENE 8 mph /  12.9 km/h 11 mph /  17.7 km/h 56 % 0 in /  0.0 mm
14:42 65.8 °F /  18.8 °C 50.7 °F /  10.4 °C 30 in /  1014.8 hPa ENE 5 mph /  8.0 km/h 11 mph /  17.7 km/h 58 % 0 in /  0.0 mm
14:47 66.2 °F /  19.0 °C 50.9 °F /  10.5 °C 30 in /  1014.8 hPa East 3 mph /  4.8 km/h 11 mph /  17.7 km/h 58 % 0 in /  0.0 mm
14:52 66.4 °F /  19.1 °C 50.7 °F /  10.4 °C 30 in /  1014.8 hPa SE 4 mph /  6.4 km/h 11 mph /  17.7 km/h 57 % 0 in /  0.0 mm
15:02 66.9 °F /  19.4 °C 50.2 °F /  10.1 °C 30 in /  1014.4 hPa East 4 mph /  6.4 km/h 7 mph /  11.3 km/h 55 % 0 in /  0.0 mm
15:07 66.6 °F /  19.2 °C 49.8 °F /  9.9 °C 30 in /  1014.4 hPa ENE 9 mph /  14.5 km/h 9 mph /  14.5 km/h 55 % 0 in /  0.0 mm
15:12 66.6 °F /  19.2 °C 49.5 °F /  9.7 °C 30 in /  1014.4 hPa ESE 3 mph /  4.8 km/h 12 mph /  19.3 km/h 54 % 0 in /  0.0 mm
15:17 66.6 °F /  19.2 °C 49.8 °F /  9.9 °C 30 in /  1014.4 hPa SSE 3 mph /  4.8 km/h 12 mph /  19.3 km/h 55 % 0 in /  0.0 mm
15:22 66.9 °F /  19.4 °C 51.6 °F /  10.9 °C 30 in /  1014.4 hPa East 3 mph /  4.8 km/h 12 mph /  19.3 km/h 58 % 0 in /  0.0 mm
15:27 67.5 °F /  19.7 °C 50.7 °F /  10.4 °C 29.9 in /  1014.1 hPa NE 4 mph /  6.4 km/h 12 mph /  19.3 km/h 55 % 0 in /  0.0 mm
15:32 66.9 °F /  19.4 °C 50.2 °F /  10.1 °C 29.9 in /  1014.1 hPa ENE 2 mph /  3.2 km/h 10 mph /  16.1 km/h 55 % 0 in /  0.0 mm
15:37 66.9 °F /  19.4 °C 49.8 °F /  9.9 °C 29.9 in /  1014.1 hPa East 7 mph /  11.3 km/h 9 mph /  14.5 km/h 54 % 0 in /  0.0 mm
15:42 67.6 °F /  19.8 °C 52.3 °F /  11.3 °C 29.9 in /  1013.8 hPa NE 4 mph /  6.4 km/h 11 mph /  17.7 km/h 58 % 0 in /  0.0 mm
15:52 68.9 °F /  20.5 °C 52.5 °F /  11.4 °C 29.9 in /  1013.8 hPa ESE 3 mph /  4.8 km/h 12 mph /  19.3 km/h 56 % 0 in /  0.0 mm
15:57 68.5 °F /  20.3 °C 49.1 °F /  9.5 °C 29.9 in /  1013.8 hPa ESE 4 mph /  6.4 km/h 12 mph /  19.3 km/h 50 % 0 in /  0.0 mm
16:02 68.4 °F /  20.2 °C 47.8 °F /  8.8 °C 29.9 in /  1013.4 hPa SE 4 mph /  6.4 km/h 8 mph /  12.9 km/h 48 % 0 in /  0.0 mm
16:07 68.4 °F /  20.2 °C 49.5 °F /  9.7 °C 29.9 in /  1013.4 hPa ESE 2 mph /  3.2 km/h 8 mph /  12.9 km/h 51 % 0 in /  0.0 mm
16:12 68.4 °F /  20.2 °C 48.4 °F /  9.1 °C 29.9 in /  1013.4 hPa ENE 4 mph /  6.4 km/h 10 mph /  16.1 km/h 49 % 0 in /  0.0 mm
16:17 67.8 °F /  19.9 °C 47.5 °F /  8.6 °C 29.9 in /  1013.4 hPa East 6 mph /  9.7 km/h 11 mph /  17.7 km/h 48 % 0 in /  0.0 mm
16:22 68.4 °F /  20.2 °C 48.9 °F /  9.4 °C 29.9 in /  1013.4 hPa East 8 mph /  12.9 km/h 12 mph /  19.3 km/h 50 % 0 in /  0.0 mm
16:27 68.4 °F /  20.2 °C 47.8 °F /  8.8 °C 29.9 in /  1013.4 hPa ESE 4 mph /  6.4 km/h 14 mph /  22.5 km/h 48 % 0 in /  0.0 mm
16:32 68 °F /  20.0 °C 46.9 °F /  8.3 °C 29.9 in /  1013.1 hPa ENE 5 mph /  8.0 km/h 14 mph /  22.5 km/h 47 % 0 in /  0.0 mm
16:37 68.2 °F /  20.1 °C 49.3 °F /  9.6 °C 29.9 in /  1013.1 hPa ENE 5 mph /  8.0 km/h 14 mph /  22.5 km/h 51 % 0 in /  0.0 mm
16:42 68 °F /  20.0 °C 48.7 °F /  9.3 °C 29.9 in /  1013.1 hPa ENE 3 mph /  4.8 km/h 10 mph /  16.1 km/h 50 % 0 in /  0.0 mm
16:47 67.3 °F /  19.6 °C 48.6 °F /  9.2 °C 29.9 in /  1013.1 hPa ENE 6 mph /  9.7 km/h 12 mph /  19.3 km/h 51 % 0 in /  0.0 mm
16:52 67.1 °F /  19.5 °C 48.9 °F /  9.4 °C 29.9 in /  1012.8 hPa ENE 6 mph /  9.7 km/h 12 mph /  19.3 km/h 52 % 0 in /  0.0 mm
16:57 67.3 °F /  19.6 °C 49.1 °F /  9.5 °C 29.9 in /  1012.8 hPa NE 1 mph /  1.6 km/h 10 mph /  16.1 km/h 52 % 0 in /  0.0 mm
17:02 67.8 °F /  19.9 °C 48.6 °F /  9.2 °C 29.9 in /  1012.8 hPa ENE 7 mph /  11.3 km/h 10 mph /  16.1 km/h 50 % 0 in /  0.0 mm
17:07 67.5 °F /  19.7 °C 47.7 °F /  8.7 °C 29.9 in /  1012.8 hPa ENE 8 mph /  12.9 km/h 16 mph /  25.7 km/h 49 % 0 in /  0.0 mm
17:12 67.3 °F /  19.6 °C 46.9 °F /  8.3 °C 29.9 in /  1012.8 hPa East 12 mph /  19.3 km/h 16 mph /  25.7 km/h 48 % 0 in /  0.0 mm
17:17 67.5 °F /  19.7 °C 47.7 °F /  8.7 °C 29.9 in /  1012.8 hPa ENE 6 mph /  9.7 km/h 16 mph /  25.7 km/h 49 % 0 in /  0.0 mm
17:22 67.5 °F /  19.7 °C 47.1 °F /  8.4 °C 29.9 in /  1012.4 hPa East 6 mph /  9.7 km/h 14 mph /  22.5 km/h 48 % 0 in /  0.0 mm
17:27 67.6 °F /  19.8 °C 47.8 °F /  8.8 °C 29.9 in /  1012.4 hPa ENE 4 mph /  6.4 km/h 14 mph /  22.5 km/h 49 % 0 in /  0.0 mm
17:32 68 °F /  20.0 °C 48.7 °F /  9.3 °C 29.9 in /  1012.4 hPa ENE 9 mph /  14.5 km/h 14 mph /  22.5 km/h 50 % 0 in /  0.0 mm
17:37 68.2 °F /  20.1 °C 48.4 °F /  9.1 °C 29.9 in /  1012.4 hPa ENE 5 mph /  8.0 km/h 13 mph /  20.9 km/h 49 % 0 in /  0.0 mm
17:42 68.4 °F /  20.2 °C 48.4 °F /  9.1 °C 29.9 in /  1012.4 hPa ESE 2 mph /  3.2 km/h 12 mph /  19.3 km/h 49 % 0 in /  0.0 mm
17:52 69.1 °F /  20.6 °C 48 °F /  8.9 °C 29.9 in /  1012.4 hPa East 7 mph /  11.3 km/h 12 mph /  19.3 km/h 47 % 0 in /  0.0 mm
17:57 68.7 °F /  20.4 °C 47.7 °F /  8.7 °C 29.9 in /  1012.4 hPa ESE 6 mph /  9.7 km/h 12 mph /  19.3 km/h 47 % 0 in /  0.0 mm
18:02 68.5 °F /  20.3 °C 48 °F /  8.9 °C 29.9 in /  1012.1 hPa East 5 mph /  8.0 km/h 12 mph /  19.3 km/h 48 % 0 in /  0.0 mm
18:07 68.4 °F /  20.2 °C 47.3 °F /  8.5 °C 29.9 in /  1011.7 hPa ENE 9 mph /  14.5 km/h 12 mph /  19.3 km/h 47 % 0 in /  0.0 mm
18:12 68.2 °F /  20.1 °C 47.1 °F /  8.4 °C 29.9 in /  1011.7 hPa ENE 4 mph /  6.4 km/h 12 mph /  19.3 km/h 47 % 0 in /  0.0 mm
18:17 67.8 °F /  19.9 °C 46.9 °F /  8.3 °C 29.9 in /  1011.7 hPa NE 4 mph /  6.4 km/h 11 mph /  17.7 km/h 47 % 0 in /  0.0 mm
18:22 67.3 °F /  19.6 °C 46.9 °F /  8.3 °C 29.9 in /  1011.7 hPa East 7 mph /  11.3 km/h 11 mph /  17.7 km/h 48 % 0 in /  0.0 mm
18:32 66.7 °F /  19.3 °C 45.3 °F /  7.4 °C 29.9 in /  1012.1 hPa East 3 mph /  4.8 km/h 11 mph /  17.7 km/h 46 % 0 in /  0.0 mm
18:42 66.7 °F /  19.3 °C 46.4 °F /  8.0 °C 29.9 in /  1011.7 hPa ENE 3 mph /  4.8 km/h 8 mph /  12.9 km/h 48 % 0 in /  0.0 mm
18:47 66.7 °F /  19.3 °C 45.9 °F /  7.7 °C 29.9 in /  1011.7 hPa ESE 3 mph /  4.8 km/h 7 mph /  11.3 km/h 47 % 0 in /  0.0 mm
18:52 66.6 °F /  19.2 °C 47.3 °F /  8.5 °C 29.9 in /  1011.7 hPa SE 2 mph /  3.2 km/h 7 mph /  11.3 km/h 50 % 0 in /  0.0 mm
18:57 66.4 °F /  19.1 °C 46.6 °F /  8.1 °C 29.9 in /  1011.7 hPa East 1 mph /  1.6 km/h 6 mph /  9.7 km/h 49 % 0 in /  0.0 mm
19:02 66.2 °F /  19.0 °C 47.5 °F /  8.6 °C 29.9 in /  1011.7 hPa ESE 3 mph /  4.8 km/h 5 mph /  8.0 km/h 51 % 0 in /  0.0 mm
19:07 65.8 °F /  18.8 °C 47.7 °F /  8.7 °C 29.9 in /  1011.7 hPa East 3 mph /  4.8 km/h 5 mph /  8.0 km/h 52 % 0 in /  0.0 mm
19:12 65.5 °F /  18.6 °C 46.9 °F /  8.3 °C 29.9 in /  1011.7 hPa SE 2 mph /  3.2 km/h 4 mph /  6.4 km/h 51 % 0 in /  0.0 mm
19:22 65.1 °F /  18.4 °C 46.6 °F /  8.1 °C 29.9 in /  1011.4 hPa East 1 mph /  1.6 km/h 4 mph /  6.4 km/h 51 % 0 in /  0.0 mm
19:27 64.9 °F /  18.3 °C 47.5 °F /  8.6 °C 29.9 in /  1011.4 hPa East 2 mph /  3.2 km/h 4 mph /  6.4 km/h 53 % 0 in /  0.0 mm
19:32 64.9 °F /  18.3 °C 45.9 °F /  7.7 °C 29.9 in /  1011.4 hPa ENE 2 mph /  3.2 km/h 4 mph /  6.4 km/h 50 % 0 in /  0.0 mm
19:37 64.9 °F /  18.3 °C 45.9 °F /  7.7 °C 29.9 in /  1011.4 hPa ENE 2 mph /  3.2 km/h 4 mph /  6.4 km/h 50 % 0 in /  0.0 mm
19:42 64.8 °F /  18.2 °C 46.2 °F /  7.9 °C 29.9 in /  1011.4 hPa SE 2 mph /  3.2 km/h 8 mph /  12.9 km/h 51 % 0 in /  0.0 mm
19:47 64.6 °F /  18.1 °C 46 °F /  7.8 °C 29.9 in /  1011.4 hPa East 2 mph /  3.2 km/h 8 mph /  12.9 km/h 51 % 0 in /  0.0 mm
19:52 64.4 °F /  18.0 °C 46.4 °F /  8.0 °C 29.9 in /  1011.1 hPa ESE 1 mph /  1.6 km/h 6 mph /  9.7 km/h 52 % 0 in /  0.0 mm
19:57 64 °F /  17.8 °C 46.6 °F /  8.1 °C 29.9 in /  1011.1 hPa East 3 mph /  4.8 km/h 6 mph /  9.7 km/h 53 % 0 in /  0.0 mm
20:02 63.9 °F /  17.7 °C 46.9 °F /  8.3 °C 29.9 in /  1011.1 hPa ESE 2 mph /  3.2 km/h 6 mph /  9.7 km/h 54 % 0 in /  0.0 mm
20:07 63.7 °F /  17.6 °C 46.8 °F /  8.2 °C 29.9 in /  1011.1 hPa ENE 2 mph /  3.2 km/h 5 mph /  8.0 km/h 54 % 0 in /  0.0 mm
20:12 63.5 °F /  17.5 °C 46.6 °F /  8.1 °C 29.9 in /  1011.1 hPa SE 4 mph /  6.4 km/h 5 mph /  8.0 km/h 54 % 0 in /  0.0 mm
20:17 63.3 °F /  17.4 °C 46.4 °F /  8.0 °C 29.9 in /  1011.1 hPa East 3 mph /  4.8 km/h 9 mph /  14.5 km/h 54 % 0 in /  0.0 mm
20:22 63 °F /  17.2 °C 46.6 °F /  8.1 °C 29.9 in /  1011.1 hPa ENE 3 mph /  4.8 km/h 9 mph /  14.5 km/h 55 % 0 in /  0.0 mm
20:27 63 °F /  17.2 °C 46.6 °F /  8.1 °C 29.9 in /  1011.1 hPa East 2 mph /  3.2 km/h 9 mph /  14.5 km/h 55 % 0 in /  0.0 mm
20:32 62.8 °F /  17.1 °C 46.9 °F /  8.3 °C 29.9 in /  1011.1 hPa East 2 mph /  3.2 km/h 5 mph /  8.0 km/h 56 % 0 in /  0.0 mm
20:37 62.6 °F /  17.0 °C 46.8 °F /  8.2 °C 29.8 in /  1010.7 hPa East 3 mph /  4.8 km/h 5 mph /  8.0 km/h 56 % 0 in /  0.0 mm
20:42 62.4 °F /  16.9 °C 46.6 °F /  8.1 °C 29.8 in /  1010.7 hPa East 3 mph /  4.8 km/h 5 mph /  8.0 km/h 56 % 0 in /  0.0 mm
20:52 62.1 °F /  16.7 °C 46.2 °F /  7.9 °C 29.8 in /  1010.7 hPa East 3 mph /  4.8 km/h 6 mph /  9.7 km/h 56 % 0 in /  0.0 mm
20:57 61.9 °F /  16.6 °C 46.4 °F /  8.0 °C 29.8 in /  1010.7 hPa ENE 2 mph /  3.2 km/h 6 mph /  9.7 km/h 57 % 0 in /  0.0 mm
21:02 61.5 °F /  16.4 °C 46.6 °F /  8.1 °C 29.8 in /  1010.7 hPa ENE 4 mph /  6.4 km/h 5 mph /  8.0 km/h 58 % 0 in /  0.0 mm
21:07 61.2 °F /  16.2 °C 46.8 °F /  8.2 °C 29.8 in /  1010.4 hPa East 3 mph /  4.8 km/h 5 mph /  8.0 km/h 59 % 0 in /  0.0 mm
21:12 61.2 °F /  16.2 °C 46.8 °F /  8.2 °C 29.8 in /  1010.4 hPa ENE 2 mph /  3.2 km/h 5 mph /  8.0 km/h 59 % 0 in /  0.0 mm
21:17 61.2 °F /  16.2 °C 46.2 °F /  7.9 °C 29.8 in /  1010.4 hPa ENE 3 mph /  4.8 km/h 4 mph /  6.4 km/h 58 % 0 in /  0.0 mm
21:22 61.3 °F /  16.3 °C 46 °F /  7.8 °C 29.8 in /  1010.4 hPa ENE 5 mph /  8.0 km/h 7 mph /  11.3 km/h 57 % 0 in /  0.0 mm
21:27 61.2 °F /  16.2 °C 45.9 °F /  7.7 °C 29.8 in /  1010.4 hPa East 5 mph /  8.0 km/h 8 mph /  12.9 km/h 57 % 0 in /  0.0 mm
21:32 61.2 °F /  16.2 °C 45.3 °F /  7.4 °C 29.8 in /  1010.4 hPa ENE 4 mph /  6.4 km/h 8 mph /  12.9 km/h 56 % 0 in /  0.0 mm
21:37 61.2 °F /  16.2 °C 44.8 °F /  7.1 °C 29.8 in /  1010.4 hPa East 5 mph /  8.0 km/h 8 mph /  12.9 km/h 55 % 0 in /  0.0 mm
21:42 61.2 °F /  16.2 °C 45.3 °F /  7.4 °C 29.8 in /  1010.0 hPa ENE 9 mph /  14.5 km/h 9 mph /  14.5 km/h 56 % 0 in /  0.0 mm
21:47 61 °F /  16.1 °C 45.7 °F /  7.6 °C 29.8 in /  1010.0 hPa ENE 6 mph /  9.7 km/h 10 mph /  16.1 km/h 57 % 0 in /  0.0 mm
21:52 60.1 °F /  15.6 °C 46.2 °F /  7.9 °C 29.8 in /  1010.0 hPa ENE 6 mph /  9.7 km/h 10 mph /  16.1 km/h 60 % 0 in /  0.0 mm
21:57 59.4 °F /  15.2 °C 46.4 °F /  8.0 °C 29.8 in /  1010.0 hPa ENE 6 mph /  9.7 km/h 10 mph /  16.1 km/h 62 % 0 in /  0.0 mm
22:02 59 °F /  15.0 °C 46.4 °F /  8.0 °C 29.8 in /  1010.0 hPa ENE 5 mph /  8.0 km/h 9 mph /  14.5 km/h 63 % 0 in /  0.0 mm
22:07 58.5 °F /  14.7 °C 46.8 °F /  8.2 °C 29.8 in /  1010.0 hPa ENE 4 mph /  6.4 km/h 8 mph /  12.9 km/h 65 % 0 in /  0.0 mm
22:12 58.3 °F /  14.6 °C 46.9 °F /  8.3 °C 29.8 in /  1010.0 hPa ENE 3 mph /  4.8 km/h 8 mph /  12.9 km/h 66 % 0 in /  0.0 mm
22:17 58.3 °F /  14.6 °C 46.9 °F /  8.3 °C 29.8 in /  1010.0 hPa ENE 4 mph /  6.4 km/h 6 mph /  9.7 km/h 66 % 0 in /  0.0 mm
22:22 58.1 °F /  14.5 °C 47.1 °F /  8.4 °C 29.8 in /  1010.0 hPa ENE 6 mph /  9.7 km/h 6 mph /  9.7 km/h 67 % 0 in /  0.0 mm
22:27 57.9 °F /  14.4 °C 46.9 °F /  8.3 °C 29.8 in /  1009.7 hPa ENE 4 mph /  6.4 km/h 6 mph /  9.7 km/h 67 % 0 in /  0.0 mm
22:32 57.7 °F /  14.3 °C 46.9 °F /  8.3 °C 29.8 in /  1010.0 hPa ENE 3 mph /  4.8 km/h 6 mph /  9.7 km/h 67 % 0 in /  0.0 mm
22:37 57.7 °F /  14.3 °C 46.9 °F /  8.3 °C 29.8 in /  1009.7 hPa NE 3 mph /  4.8 km/h 6 mph /  9.7 km/h 67 % 0 in /  0.0 mm
22:42 57.7 °F /  14.3 °C 46.4 °F /  8.0 °C 29.8 in /  1009.7 hPa NE 3 mph /  4.8 km/h 6 mph /  9.7 km/h 66 % 0 in /  0.0 mm
22:47 57.9 °F /  14.4 °C 46.2 °F /  7.9 °C 29.8 in /  1009.7 hPa NE 2 mph /  3.2 km/h 6 mph /  9.7 km/h 65 % 0 in /  0.0 mm
22:52 57.9 °F /  14.4 °C 46.2 °F /  7.9 °C 29.8 in /  1009.7 hPa NE 2 mph /  3.2 km/h 5 mph /  8.0 km/h 65 % 0 in /  0.0 mm
22:57 57.6 °F /  14.2 °C 46.2 °F /  7.9 °C 29.8 in /  1009.7 hPa NE 3 mph /  4.8 km/h 6 mph /  9.7 km/h 66 % 0 in /  0.0 mm
23:02 57.4 °F /  14.1 °C 46.6 °F /  8.1 °C 29.8 in /  1009.4 hPa ENE 4 mph /  6.4 km/h 6 mph /  9.7 km/h 67 % 0 in /  0.0 mm
23:07 57 °F /  13.9 °C 46.2 °F /  7.9 °C 29.8 in /  1009.4 hPa NE 5 mph /  8.0 km/h 6 mph /  9.7 km/h 67 % 0 in /  0.0 mm
23:12 56.7 °F /  13.7 °C 46.2 °F /  7.9 °C 29.8 in /  1009.4 hPa NNE 2 mph /  3.2 km/h 6 mph /  9.7 km/h 68 % 0 in /  0.0 mm
23:17 56.5 °F /  13.6 °C 46 °F /  7.8 °C 29.8 in /  1009.4 hPa NE 3 mph /  4.8 km/h 6 mph /  9.7 km/h 68 % 0 in /  0.0 mm
23:22 56.3 °F /  13.5 °C 45.9 °F /  7.7 °C 29.8 in /  1009.4 hPa NE 4 mph /  6.4 km/h 6 mph /  9.7 km/h 68 % 0 in /  0.0 mm
23:27 56.5 °F /  13.6 °C 45.7 °F /  7.6 °C 29.8 in /  1009.4 hPa NE 6 mph /  9.7 km/h 8 mph /  12.9 km/h 67 % 0 in /  0.0 mm
23:32 56.7 °F /  13.7 °C 45.9 °F /  7.7 °C 29.8 in /  1009.4 hPa NE 4 mph /  6.4 km/h 8 mph /  12.9 km/h 67 % 0 in /  0.0 mm
23:37 56.5 °F /  13.6 °C 46 °F /  7.8 °C 29.8 in /  1009.0 hPa NE 5 mph /  8.0 km/h 8 mph /  12.9 km/h 68 % 0 in /  0.0 mm
23:42 56.1 °F /  13.4 °C 45.7 °F /  7.6 °C 29.8 in /  1009.0 hPa ENE 3 mph /  4.8 km/h 7 mph /  11.3 km/h 68 % 0 in /  0.0 mm
23:47 55.9 °F /  13.3 °C 45.9 °F /  7.7 °C 29.8 in /  1009.0 hPa NNE 3 mph /  4.8 km/h 7 mph /  11.3 km/h 69 % 0 in /  0.0 mm
23:52 55.8 °F /  13.2 °C 45.7 °F /  7.6 °C 29.8 in /  1009.0 hPa NNE 5 mph /  8.0 km/h 7 mph /  11.3 km/h 69 % 0 in /  0.0 mm
23:57 55.8 °F /  13.2 °C 45.7 °F /  7.6 °C 29.8 in /  1009.0 hPa NE 5 mph /  8.0 km/h 7 mph /  11.3 km/h 69 % 0 in /  0.0 mm
Meteo18
Compliments of Weather Underground - 4 mb

Script developed by  Jim McMurry - jmcmurry@mwt.net Adapted for the template by  Wim van der Kuil - Leuven-Template.eu

You find our weather info also at:

European Weather Network

Weather Underground

Equipment we use:

Weather-station
Davis Vue

Weather-program
Meteohub

Weather-server
Raspberry PI 2 B+

Provider
1 and 1

Davis Vue

Meteohub

Raspberry PI 2 B+

1 and 1